sensor_id;sensor_type;location;lat;lon;timestamp;P1;durP1;ratioP1;P2;durP2;ratioP2
53879;SDS011;39791;53.184;5.486;2023-12-20T00:00:52;50.03;;;27.98;;
53879;SDS011;39791;53.184;5.486;2023-12-20T00:03:17;54.40;;;27.75;;
53879;SDS011;39791;53.184;5.486;2023-12-20T00:05:43;44.83;;;24.10;;
53879;SDS011;39791;53.184;5.486;2023-12-20T00:08:09;49.78;;;25.95;;
53879;SDS011;39791;53.184;5.486;2023-12-20T00:10:34;49.72;;;26.67;;
53879;SDS011;39791;53.184;5.486;2023-12-20T00:13:00;47.42;;;27.88;;
53879;SDS011;39791;53.184;5.486;2023-12-20T00:15:25;47.40;;;27.77;;
53879;SDS011;39791;53.184;5.486;2023-12-20T00:17:51;48.28;;;26.27;;
53879;SDS011;39791;53.184;5.486;2023-12-20T00:20:16;54.05;;;27.85;;
53879;SDS011;39791;53.184;5.486;2023-12-20T00:22:42;51.75;;;27.02;;
53879;SDS011;39791;53.184;5.486;2023-12-20T00:25:07;53.10;;;27.80;;
53879;SDS011;39791;53.184;5.486;2023-12-20T00:27:33;58.38;;;27.50;;
53879;SDS011;39791;53.184;5.486;2023-12-20T00:29:59;54.50;;;27.98;;
53879;SDS011;39791;53.184;5.486;2023-12-20T00:32:25;51.58;;;29.20;;
53879;SDS011;39791;53.184;5.486;2023-12-20T00:34:50;51.47;;;25.63;;
53879;SDS011;39791;53.184;5.486;2023-12-20T00:37:16;33.15;;;22.52;;
53879;SDS011;39791;53.184;5.486;2023-12-20T00:39:41;53.50;;;27.48;;
53879;SDS011;39791;53.184;5.486;2023-12-20T00:42:07;49.30;;;28.70;;
53879;SDS011;39791;53.184;5.486;2023-12-20T00:44:33;43.90;;;24.15;;
53879;SDS011;39791;53.184;5.486;2023-12-20T00:46:58;39.67;;;23.33;;
53879;SDS011;39791;53.184;5.486;2023-12-20T00:49:24;60.05;;;27.85;;
53879;SDS011;39791;53.184;5.486;2023-12-20T00:51:49;53.38;;;28.55;;
53879;SDS011;39791;53.184;5.486;2023-12-20T00:54:17;46.65;;;25.30;;
53879;SDS011;39791;53.184;5.486;2023-12-20T00:56:43;52.95;;;28.60;;
53879;SDS011;39791;53.184;5.486;2023-12-20T00:59:08;56.50;;;27.92;;
53879;SDS011;39791;53.184;5.486;2023-12-20T01:01:34;66.68;;;30.58;;
53879;SDS011;39791;53.184;5.486;2023-12-20T01:04:00;62.10;;;29.88;;
53879;SDS011;39791;53.184;5.486;2023-12-20T01:06:25;72.43;;;30.35;;
53879;SDS011;39791;53.184;5.486;2023-12-20T01:08:51;62.83;;;29.83;;
53879;SDS011;39791;53.184;5.486;2023-12-20T01:11:16;37.85;;;25.48;;
53879;SDS011;39791;53.184;5.486;2023-12-20T01:13:42;40.72;;;24.45;;
53879;SDS011;39791;53.184;5.486;2023-12-20T01:16:09;56.35;;;26.33;;
53879;SDS011;39791;53.184;5.486;2023-12-20T01:18:36;43.33;;;24.27;;
53879;SDS011;39791;53.184;5.486;2023-12-20T01:21:02;51.25;;;28.40;;
53879;SDS011;39791;53.184;5.486;2023-12-20T01:23:28;61.90;;;28.10;;
53879;SDS011;39791;53.184;5.486;2023-12-20T01:25:54;61.67;;;27.70;;
53879;SDS011;39791;53.184;5.486;2023-12-20T01:28:20;58.47;;;27.50;;
53879;SDS011;39791;53.184;5.486;2023-12-20T01:30:45;60.67;;;25.95;;
53879;SDS011;39791;53.184;5.486;2023-12-20T01:33:11;50.80;;;27.38;;
53879;SDS011;39791;53.184;5.486;2023-12-20T01:35:37;40.28;;;22.52;;
53879;SDS011;39791;53.184;5.486;2023-12-20T01:38:02;50.30;;;28.23;;
53879;SDS011;39791;53.184;5.486;2023-12-20T01:40:28;56.47;;;26.85;;
53879;SDS011;39791;53.184;5.486;2023-12-20T01:45:34;57.55;;;28.05;;
53879;SDS011;39791;53.184;5.486;2023-12-20T01:48:00;64.90;;;29.17;;
53879;SDS011;39791;53.184;5.486;2023-12-20T01:50:28;50.65;;;27.20;;
53879;SDS011;39791;53.184;5.486;2023-12-20T01:52:53;57.88;;;27.33;;
53879;SDS011;39791;53.184;5.486;2023-12-20T01:55:22;56.05;;;27.95;;
53879;SDS011;39791;53.184;5.486;2023-12-20T01:57:49;51.10;;;24.17;;
53879;SDS011;39791;53.184;5.486;2023-12-20T02:00:15;57.88;;;27.88;;
53879;SDS011;39791;53.184;5.486;2023-12-20T02:02:41;55.83;;;27.77;;
53879;SDS011;39791;53.184;5.486;2023-12-20T02:05:10;60.38;;;28.38;;
53879;SDS011;39791;53.184;5.486;2023-12-20T02:07:36;60.90;;;29.20;;
53879;SDS011;39791;53.184;5.486;2023-12-20T02:10:02;60.17;;;28.15;;
53879;SDS011;39791;53.184;5.486;2023-12-20T02:12:29;53.10;;;29.75;;
53879;SDS011;39791;53.184;5.486;2023-12-20T02:14:55;54.55;;;28.05;;
53879;SDS011;39791;53.184;5.486;2023-12-20T02:17:20;57.20;;;28.63;;
53879;SDS011;39791;53.184;5.486;2023-12-20T02:19:47;57.13;;;28.67;;
53879;SDS011;39791;53.184;5.486;2023-12-20T02:22:12;60.10;;;29.05;;
53879;SDS011;39791;53.184;5.486;2023-12-20T02:24:38;51.25;;;28.10;;
53879;SDS011;39791;53.184;5.486;2023-12-20T02:27:05;49.90;;;27.73;;
53879;SDS011;39791;53.184;5.486;2023-12-20T02:29:32;63.80;;;27.65;;
53879;SDS011;39791;53.184;5.486;2023-12-20T02:31:58;59.30;;;28.02;;
53879;SDS011;39791;53.184;5.486;2023-12-20T02:34:24;52.90;;;28.67;;
53879;SDS011;39791;53.184;5.486;2023-12-20T02:36:49;56.80;;;30.15;;
53879;SDS011;39791;53.184;5.486;2023-12-20T02:39:15;38.17;;;24.83;;
53879;SDS011;39791;53.184;5.486;2023-12-20T02:41:41;63.88;;;29.45;;
53879;SDS011;39791;53.184;5.486;2023-12-20T02:44:07;56.40;;;29.25;;
53879;SDS011;39791;53.184;5.486;2023-12-20T02:46:33;56.00;;;27.73;;
53879;SDS011;39791;53.184;5.486;2023-12-20T02:48:58;59.17;;;29.60;;
53879;SDS011;39791;53.184;5.486;2023-12-20T02:51:24;56.95;;;30.15;;
53879;SDS011;39791;53.184;5.486;2023-12-20T02:53:49;56.40;;;28.83;;
53879;SDS011;39791;53.184;5.486;2023-12-20T02:56:15;53.22;;;28.08;;
53879;SDS011;39791;53.184;5.486;2023-12-20T02:58:40;44.92;;;25.10;;
53879;SDS011;39791;53.184;5.486;2023-12-20T03:01:06;60.80;;;30.88;;
53879;SDS011;39791;53.184;5.486;2023-12-20T03:03:31;59.88;;;29.00;;
53879;SDS011;39791;53.184;5.486;2023-12-20T03:05:57;58.38;;;29.55;;
53879;SDS011;39791;53.184;5.486;2023-12-20T03:08:23;61.80;;;29.90;;
53879;SDS011;39791;53.184;5.486;2023-12-20T03:10:48;43.28;;;23.92;;
53879;SDS011;39791;53.184;5.486;2023-12-20T03:13:14;54.05;;;26.75;;
53879;SDS011;39791;53.184;5.486;2023-12-20T03:15:40;60.50;;;26.83;;
53879;SDS011;39791;53.184;5.486;2023-12-20T03:18:05;57.47;;;28.42;;
53879;SDS011;39791;53.184;5.486;2023-12-20T03:20:31;53.63;;;28.15;;
53879;SDS011;39791;53.184;5.486;2023-12-20T03:23:00;55.47;;;28.58;;
53879;SDS011;39791;53.184;5.486;2023-12-20T03:25:25;60.95;;;28.13;;
53879;SDS011;39791;53.184;5.486;2023-12-20T03:27:51;53.97;;;29.83;;
53879;SDS011;39791;53.184;5.486;2023-12-20T03:30:17;56.08;;;29.13;;
53879;SDS011;39791;53.184;5.486;2023-12-20T03:32:43;60.78;;;31.10;;
53879;SDS011;39791;53.184;5.486;2023-12-20T03:35:09;60.75;;;31.08;;
53879;SDS011;39791;53.184;5.486;2023-12-20T03:37:34;61.58;;;30.88;;
53879;SDS011;39791;53.184;5.486;2023-12-20T03:40:00;39.50;;;24.33;;
53879;SDS011;39791;53.184;5.486;2023-12-20T03:42:26;57.25;;;30.02;;
53879;SDS011;39791;53.184;5.486;2023-12-20T03:44:51;52.42;;;29.50;;
53879;SDS011;39791;53.184;5.486;2023-12-20T03:47:17;58.67;;;29.30;;
53879;SDS011;39791;53.184;5.486;2023-12-20T03:49:42;65.43;;;32.00;;
53879;SDS011;39791;53.184;5.486;2023-12-20T03:52:08;66.10;;;30.15;;
53879;SDS011;39791;53.184;5.486;2023-12-20T03:54:34;64.38;;;30.40;;
53879;SDS011;39791;53.184;5.486;2023-12-20T03:57:00;68.28;;;31.02;;
53879;SDS011;39791;53.184;5.486;2023-12-20T03:59:26;71.55;;;29.67;;
53879;SDS011;39791;53.184;5.486;2023-12-20T04:01:52;60.40;;;29.95;;
53879;SDS011;39791;53.184;5.486;2023-12-20T04:04:18;61.38;;;30.00;;
53879;SDS011;39791;53.184;5.486;2023-12-20T04:06:44;54.13;;;25.90;;
53879;SDS011;39791;53.184;5.486;2023-12-20T04:09:09;54.58;;;25.23;;
53879;SDS011;39791;53.184;5.486;2023-12-20T04:11:36;57.83;;;29.73;;
53879;SDS011;39791;53.184;5.486;2023-12-20T04:14:01;61.40;;;30.05;;
53879;SDS011;39791;53.184;5.486;2023-12-20T04:16:27;60.50;;;30.67;;
53879;SDS011;39791;53.184;5.486;2023-12-20T04:18:52;70.03;;;32.75;;
53879;SDS011;39791;53.184;5.486;2023-12-20T04:21:18;62.75;;;31.45;;
53879;SDS011;39791;53.184;5.486;2023-12-20T04:23:43;58.97;;;30.55;;
53879;SDS011;39791;53.184;5.486;2023-12-20T04:26:10;66.30;;;32.25;;
53879;SDS011;39791;53.184;5.486;2023-12-20T04:28:35;66.78;;;31.75;;
53879;SDS011;39791;53.184;5.486;2023-12-20T04:31:01;61.95;;;30.38;;
53879;SDS011;39791;53.184;5.486;2023-12-20T04:33:26;60.67;;;30.25;;
53879;SDS011;39791;53.184;5.486;2023-12-20T04:35:52;63.05;;;30.45;;
53879;SDS011;39791;53.184;5.486;2023-12-20T04:38:18;55.58;;;29.55;;
53879;SDS011;39791;53.184;5.486;2023-12-20T04:40:43;56.60;;;29.40;;
53879;SDS011;39791;53.184;5.486;2023-12-20T04:43:09;57.38;;;28.85;;
53879;SDS011;39791;53.184;5.486;2023-12-20T04:45:35;67.45;;;30.20;;
53879;SDS011;39791;53.184;5.486;2023-12-20T04:48:01;68.60;;;29.92;;
53879;SDS011;39791;53.184;5.486;2023-12-20T04:50:27;58.88;;;29.38;;
53879;SDS011;39791;53.184;5.486;2023-12-20T04:52:53;59.50;;;30.42;;
53879;SDS011;39791;53.184;5.486;2023-12-20T04:55:18;59.38;;;28.83;;
53879;SDS011;39791;53.184;5.486;2023-12-20T04:57:45;55.50;;;28.38;;
53879;SDS011;39791;53.184;5.486;2023-12-20T05:00:10;65.18;;;30.25;;
53879;SDS011;39791;53.184;5.486;2023-12-20T05:02:37;61.72;;;30.65;;
53879;SDS011;39791;53.184;5.486;2023-12-20T05:05:03;63.63;;;30.67;;
53879;SDS011;39791;53.184;5.486;2023-12-20T05:07:28;59.40;;;29.63;;
53879;SDS011;39791;53.184;5.486;2023-12-20T05:09:54;64.78;;;30.80;;
53879;SDS011;39791;53.184;5.486;2023-12-20T05:12:19;62.67;;;29.83;;
53879;SDS011;39791;53.184;5.486;2023-12-20T05:14:45;56.10;;;29.48;;
53879;SDS011;39791;53.184;5.486;2023-12-20T05:17:11;61.85;;;30.40;;
53879;SDS011;39791;53.184;5.486;2023-12-20T05:19:37;62.58;;;31.90;;
53879;SDS011;39791;53.184;5.486;2023-12-20T05:22:02;58.70;;;31.55;;
53879;SDS011;39791;53.184;5.486;2023-12-20T05:24:28;58.83;;;29.90;;
53879;SDS011;39791;53.184;5.486;2023-12-20T05:26:54;54.00;;;31.10;;
53879;SDS011;39791;53.184;5.486;2023-12-20T05:29:20;59.25;;;30.25;;
53879;SDS011;39791;53.184;5.486;2023-12-20T05:31:45;60.92;;;30.95;;
53879;SDS011;39791;53.184;5.486;2023-12-20T05:34:11;67.57;;;31.77;;
53879;SDS011;39791;53.184;5.486;2023-12-20T05:36:37;64.05;;;31.35;;
53879;SDS011;39791;53.184;5.486;2023-12-20T05:39:03;61.15;;;30.63;;
53879;SDS011;39791;53.184;5.486;2023-12-20T05:41:30;70.78;;;31.35;;
53879;SDS011;39791;53.184;5.486;2023-12-20T05:43:55;56.75;;;29.15;;
53879;SDS011;39791;53.184;5.486;2023-12-20T05:46:23;58.38;;;27.92;;
53879;SDS011;39791;53.184;5.486;2023-12-20T05:48:49;49.92;;;27.95;;
53879;SDS011;39791;53.184;5.486;2023-12-20T05:51:14;56.15;;;30.17;;
53879;SDS011;39791;53.184;5.486;2023-12-20T05:53:40;59.47;;;29.85;;
53879;SDS011;39791;53.184;5.486;2023-12-20T05:56:06;56.20;;;29.75;;
53879;SDS011;39791;53.184;5.486;2023-12-20T05:58:32;56.55;;;28.98;;
53879;SDS011;39791;53.184;5.486;2023-12-20T06:00:58;62.13;;;29.45;;
53879;SDS011;39791;53.184;5.486;2023-12-20T06:03:23;58.65;;;30.48;;
53879;SDS011;39791;53.184;5.486;2023-12-20T06:05:49;68.65;;;30.80;;
53879;SDS011;39791;53.184;5.486;2023-12-20T06:08:15;62.40;;;31.13;;
53879;SDS011;39791;53.184;5.486;2023-12-20T06:10:40;58.60;;;30.08;;
53879;SDS011;39791;53.184;5.486;2023-12-20T06:13:06;54.40;;;29.95;;
53879;SDS011;39791;53.184;5.486;2023-12-20T06:15:32;60.08;;;29.95;;
53879;SDS011;39791;53.184;5.486;2023-12-20T06:17:58;60.35;;;30.52;;
53879;SDS011;39791;53.184;5.486;2023-12-20T06:20:23;59.35;;;31.90;;
53879;SDS011;39791;53.184;5.486;2023-12-20T06:22:49;61.22;;;30.65;;
53879;SDS011;39791;53.184;5.486;2023-12-20T06:25:16;68.40;;;31.55;;
53879;SDS011;39791;53.184;5.486;2023-12-20T06:27:42;63.60;;;31.77;;
53879;SDS011;39791;53.184;5.486;2023-12-20T06:30:07;59.00;;;30.38;;
53879;SDS011;39791;53.184;5.486;2023-12-20T06:32:36;62.72;;;30.63;;
53879;SDS011;39791;53.184;5.486;2023-12-20T06:35:03;58.72;;;30.98;;
53879;SDS011;39791;53.184;5.486;2023-12-20T06:37:30;63.15;;;32.40;;
53879;SDS011;39791;53.184;5.486;2023-12-20T06:39:55;69.75;;;31.90;;
53879;SDS011;39791;53.184;5.486;2023-12-20T06:42:22;55.92;;;31.80;;
53879;SDS011;39791;53.184;5.486;2023-12-20T06:44:47;60.55;;;32.25;;
53879;SDS011;39791;53.184;5.486;2023-12-20T06:47:13;65.65;;;33.97;;
53879;SDS011;39791;53.184;5.486;2023-12-20T06:49:39;65.28;;;34.05;;
53879;SDS011;39791;53.184;5.486;2023-12-20T06:52:05;57.45;;;30.65;;
53879;SDS011;39791;53.184;5.486;2023-12-20T06:54:31;66.07;;;30.98;;
53879;SDS011;39791;53.184;5.486;2023-12-20T06:56:56;64.03;;;30.52;;
53879;SDS011;39791;53.184;5.486;2023-12-20T06:59:22;67.78;;;31.13;;
53879;SDS011;39791;53.184;5.486;2023-12-20T07:01:48;61.83;;;30.40;;
53879;SDS011;39791;53.184;5.486;2023-12-20T07:04:14;60.65;;;30.77;;
53879;SDS011;39791;53.184;5.486;2023-12-20T07:06:40;59.08;;;29.90;;
53879;SDS011;39791;53.184;5.486;2023-12-20T07:09:06;65.93;;;31.73;;
53879;SDS011;39791;53.184;5.486;2023-12-20T07:11:31;64.68;;;32.35;;
53879;SDS011;39791;53.184;5.486;2023-12-20T07:13:57;54.00;;;29.77;;
53879;SDS011;39791;53.184;5.486;2023-12-20T07:16:22;54.63;;;29.80;;
53879;SDS011;39791;53.184;5.486;2023-12-20T07:18:48;54.22;;;28.63;;
53879;SDS011;39791;53.184;5.486;2023-12-20T07:21:13;60.97;;;31.85;;
53879;SDS011;39791;53.184;5.486;2023-12-20T07:23:39;53.50;;;29.15;;
53879;SDS011;39791;53.184;5.486;2023-12-20T07:26:05;60.22;;;31.23;;
53879;SDS011;39791;53.184;5.486;2023-12-20T07:28:31;67.68;;;31.45;;
53879;SDS011;39791;53.184;5.486;2023-12-20T07:30:56;76.50;;;33.20;;
53879;SDS011;39791;53.184;5.486;2023-12-20T07:33:22;63.05;;;32.20;;
53879;SDS011;39791;53.184;5.486;2023-12-20T07:35:47;69.68;;;31.20;;
53879;SDS011;39791;53.184;5.486;2023-12-20T07:38:13;58.78;;;31.40;;
53879;SDS011;39791;53.184;5.486;2023-12-20T07:40:38;59.72;;;31.58;;
53879;SDS011;39791;53.184;5.486;2023-12-20T07:43:04;63.58;;;32.60;;
53879;SDS011;39791;53.184;5.486;2023-12-20T07:45:29;63.17;;;32.70;;
53879;SDS011;39791;53.184;5.486;2023-12-20T07:47:55;59.45;;;33.15;;
53879;SDS011;39791;53.184;5.486;2023-12-20T07:50:21;61.45;;;30.85;;
53879;SDS011;39791;53.184;5.486;2023-12-20T07:52:46;51.85;;;29.40;;
53879;SDS011;39791;53.184;5.486;2023-12-20T07:55:12;57.22;;;29.73;;
53879;SDS011;39791;53.184;5.486;2023-12-20T07:57:37;61.97;;;33.20;;
53879;SDS011;39791;53.184;5.486;2023-12-20T08:00:03;58.72;;;28.65;;
53879;SDS011;39791;53.184;5.486;2023-12-20T08:02:29;57.90;;;30.25;;
53879;SDS011;39791;53.184;5.486;2023-12-20T08:04:55;53.97;;;29.17;;
53879;SDS011;39791;53.184;5.486;2023-12-20T08:07:20;47.80;;;29.00;;
53879;SDS011;39791;53.184;5.486;2023-12-20T08:09:46;57.83;;;28.88;;
53879;SDS011;39791;53.184;5.486;2023-12-20T08:12:11;57.38;;;28.70;;
53879;SDS011;39791;53.184;5.486;2023-12-20T08:14:37;58.10;;;29.38;;
53879;SDS011;39791;53.184;5.486;2023-12-20T08:17:03;56.38;;;29.55;;
53879;SDS011;39791;53.184;5.486;2023-12-20T08:19:28;62.80;;;30.20;;
53879;SDS011;39791;53.184;5.486;2023-12-20T08:21:54;47.78;;;28.13;;
53879;SDS011;39791;53.184;5.486;2023-12-20T08:24:19;52.40;;;28.35;;
53879;SDS011;39791;53.184;5.486;2023-12-20T08:26:45;51.75;;;29.02;;
53879;SDS011;39791;53.184;5.486;2023-12-20T08:29:12;56.38;;;29.88;;
53879;SDS011;39791;53.184;5.486;2023-12-20T08:31:39;58.90;;;28.83;;
53879;SDS011;39791;53.184;5.486;2023-12-20T08:34:04;46.88;;;27.02;;
53879;SDS011;39791;53.184;5.486;2023-12-20T08:36:30;58.45;;;27.23;;
53879;SDS011;39791;53.184;5.486;2023-12-20T08:38:55;48.20;;;25.60;;
53879;SDS011;39791;53.184;5.486;2023-12-20T08:41:21;34.65;;;24.30;;
53879;SDS011;39791;53.184;5.486;2023-12-20T08:43:47;30.23;;;22.48;;
53879;SDS011;39791;53.184;5.486;2023-12-20T08:46:13;57.28;;;27.40;;
53879;SDS011;39791;53.184;5.486;2023-12-20T08:48:40;48.90;;;27.60;;
53879;SDS011;39791;53.184;5.486;2023-12-20T08:51:05;49.10;;;25.73;;
53879;SDS011;39791;53.184;5.486;2023-12-20T08:53:34;51.80;;;29.27;;
53879;SDS011;39791;53.184;5.486;2023-12-20T08:55:59;53.60;;;30.15;;
53879;SDS011;39791;53.184;5.486;2023-12-20T08:58:27;52.70;;;27.40;;
53879;SDS011;39791;53.184;5.486;2023-12-20T09:00:53;33.03;;;23.23;;
53879;SDS011;39791;53.184;5.486;2023-12-20T09:03:18;34.00;;;23.95;;
53879;SDS011;39791;53.184;5.486;2023-12-20T09:05:44;38.20;;;23.75;;
53879;SDS011;39791;53.184;5.486;2023-12-20T09:08:09;37.22;;;25.45;;
53879;SDS011;39791;53.184;5.486;2023-12-20T09:10:35;38.33;;;26.35;;
53879;SDS011;39791;53.184;5.486;2023-12-20T09:13:02;36.00;;;26.08;;
53879;SDS011;39791;53.184;5.486;2023-12-20T09:15:29;45.40;;;29.60;;
53879;SDS011;39791;53.184;5.486;2023-12-20T09:17:55;45.97;;;30.13;;
53879;SDS011;39791;53.184;5.486;2023-12-20T09:20:21;45.78;;;30.35;;
53879;SDS011;39791;53.184;5.486;2023-12-20T09:22:48;49.25;;;30.25;;
53879;SDS011;39791;53.184;5.486;2023-12-20T09:25:14;48.88;;;30.02;;
53879;SDS011;39791;53.184;5.486;2023-12-20T09:27:41;39.90;;;26.20;;
53879;SDS011;39791;53.184;5.486;2023-12-20T09:30:06;36.40;;;24.80;;
53879;SDS011;39791;53.184;5.486;2023-12-20T09:32:32;36.38;;;25.83;;
53879;SDS011;39791;53.184;5.486;2023-12-20T09:34:58;32.47;;;23.77;;
53879;SDS011;39791;53.184;5.486;2023-12-20T09:37:26;31.77;;;23.60;;
53879;SDS011;39791;53.184;5.486;2023-12-20T09:39:52;36.85;;;25.15;;
53879;SDS011;39791;53.184;5.486;2023-12-20T09:42:21;35.53;;;25.15;;
53879;SDS011;39791;53.184;5.486;2023-12-20T09:44:54;45.38;;;26.27;;
53879;SDS011;39791;53.184;5.486;2023-12-20T09:47:21;40.97;;;27.10;;
53879;SDS011;39791;53.184;5.486;2023-12-20T09:49:49;34.50;;;24.38;;
53879;SDS011;39791;53.184;5.486;2023-12-20T09:52:58;38.78;;;24.98;;
53879;SDS011;39791;53.184;5.486;2023-12-20T09:55:08;32.97;;;22.25;;
53879;SDS011;39791;53.184;5.486;2023-12-20T09:57:35;24.70;;;20.52;;
53879;SDS011;39791;53.184;5.486;2023-12-20T10:00:00;34.55;;;24.65;;
53879;SDS011;39791;53.184;5.486;2023-12-20T10:02:26;34.78;;;23.88;;
53879;SDS011;39791;53.184;5.486;2023-12-20T10:04:52;38.65;;;24.77;;
53879;SDS011;39791;53.184;5.486;2023-12-20T10:07:19;41.42;;;25.70;;
53879;SDS011;39791;53.184;5.486;2023-12-20T10:09:45;36.00;;;24.77;;
53879;SDS011;39791;53.184;5.486;2023-12-20T10:12:12;32.08;;;21.33;;
53879;SDS011;39791;53.184;5.486;2023-12-20T10:14:38;39.63;;;24.60;;
53879;SDS011;39791;53.184;5.486;2023-12-20T10:17:04;28.98;;;20.48;;
53879;SDS011;39791;53.184;5.486;2023-12-20T10:19:31;26.85;;;21.00;;
53879;SDS011;39791;53.184;5.486;2023-12-20T10:21:59;30.55;;;22.02;;
53879;SDS011;39791;53.184;5.486;2023-12-20T10:24:25;34.33;;;19.02;;
53879;SDS011;39791;53.184;5.486;2023-12-20T10:27:04;32.90;;;20.10;;
53879;SDS011;39791;53.184;5.486;2023-12-20T10:29:34;28.33;;;19.15;;
53879;SDS011;39791;53.184;5.486;2023-12-20T10:32:16;29.40;;;20.10;;
53879;SDS011;39791;53.184;5.486;2023-12-20T10:34:50;30.20;;;18.83;;
53879;SDS011;39791;53.184;5.486;2023-12-20T10:37:17;34.80;;;21.15;;
53879;SDS011;39791;53.184;5.486;2023-12-20T10:39:43;36.33;;;22.00;;
53879;SDS011;39791;53.184;5.486;2023-12-20T10:42:12;32.55;;;20.98;;
53879;SDS011;39791;53.184;5.486;2023-12-20T10:44:38;28.48;;;19.92;;
53879;SDS011;39791;53.184;5.486;2023-12-20T10:47:04;30.73;;;19.13;;
53879;SDS011;39791;53.184;5.486;2023-12-20T10:49:31;27.92;;;19.25;;
53879;SDS011;39791;53.184;5.486;2023-12-20T10:52:01;35.65;;;20.00;;
53879;SDS011;39791;53.184;5.486;2023-12-20T10:54:28;27.85;;;18.38;;
53879;SDS011;39791;53.184;5.486;2023-12-20T10:56:54;29.65;;;19.17;;
53879;SDS011;39791;53.184;5.486;2023-12-20T10:59:22;27.45;;;17.08;;
53879;SDS011;39791;53.184;5.486;2023-12-20T11:01:49;30.38;;;18.35;;
53879;SDS011;39791;53.184;5.486;2023-12-20T11:04:18;28.00;;;16.75;;
53879;SDS011;39791;53.184;5.486;2023-12-20T11:06:51;29.85;;;16.80;;
53879;SDS011;39791;53.184;5.486;2023-12-20T11:09:35;29.42;;;18.60;;
53879;SDS011;39791;53.184;5.486;2023-12-20T11:12:16;33.70;;;18.65;;
53879;SDS011;39791;53.184;5.486;2023-12-20T11:14:47;33.65;;;20.55;;
53879;SDS011;39791;53.184;5.486;2023-12-20T11:17:17;40.08;;;21.83;;
53879;SDS011;39791;53.184;5.486;2023-12-20T11:22:21;38.42;;;21.80;;
53879;SDS011;39791;53.184;5.486;2023-12-20T11:24:47;36.63;;;22.00;;
53879;SDS011;39791;53.184;5.486;2023-12-20T11:27:14;41.20;;;21.90;;
53879;SDS011;39791;53.184;5.486;2023-12-20T11:29:40;38.45;;;21.85;;
53879;SDS011;39791;53.184;5.486;2023-12-20T11:34:54;44.22;;;24.05;;
53879;SDS011;39791;53.184;5.486;2023-12-20T11:37:36;45.55;;;28.05;;
53879;SDS011;39791;53.184;5.486;2023-12-20T11:40:03;42.80;;;27.85;;
53879;SDS011;39791;53.184;5.486;2023-12-20T11:42:38;43.13;;;27.23;;
53879;SDS011;39791;53.184;5.486;2023-12-20T11:45:05;39.22;;;25.15;;
53879;SDS011;39791;53.184;5.486;2023-12-20T11:47:34;35.13;;;23.52;;
53879;SDS011;39791;53.184;5.486;2023-12-20T11:50:00;30.17;;;21.88;;
53879;SDS011;39791;53.184;5.486;2023-12-20T11:52:28;26.27;;;19.48;;
53879;SDS011;39791;53.184;5.486;2023-12-20T11:54:54;28.02;;;18.75;;
53879;SDS011;39791;53.184;5.486;2023-12-20T11:57:20;24.25;;;19.65;;
53879;SDS011;39791;53.184;5.486;2023-12-20T11:59:46;24.67;;;19.27;;
53879;SDS011;39791;53.184;5.486;2023-12-20T12:02:12;25.98;;;20.55;;
53879;SDS011;39791;53.184;5.486;2023-12-20T12:04:37;32.33;;;22.95;;
53879;SDS011;39791;53.184;5.486;2023-12-20T12:07:03;36.15;;;26.08;;
53879;SDS011;39791;53.184;5.486;2023-12-20T12:09:29;32.83;;;26.30;;
53879;SDS011;39791;53.184;5.486;2023-12-20T12:11:54;37.33;;;28.17;;
53879;SDS011;39791;53.184;5.486;2023-12-20T12:14:20;38.10;;;27.42;;
53879;SDS011;39791;53.184;5.486;2023-12-20T12:16:46;39.83;;;28.27;;
53879;SDS011;39791;53.184;5.486;2023-12-20T12:19:24;41.53;;;28.95;;
53879;SDS011;39791;53.184;5.486;2023-12-20T12:22:06;33.53;;;27.55;;
53879;SDS011;39791;53.184;5.486;2023-12-20T12:24:36;36.13;;;26.80;;
53879;SDS011;39791;53.184;5.486;2023-12-20T12:27:02;37.58;;;27.85;;
53879;SDS011;39791;53.184;5.486;2023-12-20T12:29:30;39.03;;;28.50;;
53879;SDS011;39791;53.184;5.486;2023-12-20T12:31:56;43.67;;;29.48;;
53879;SDS011;39791;53.184;5.486;2023-12-20T12:34:22;40.72;;;29.58;;
53879;SDS011;39791;53.184;5.486;2023-12-20T12:36:48;38.90;;;30.20;;
53879;SDS011;39791;53.184;5.486;2023-12-20T12:39:13;42.17;;;31.50;;
53879;SDS011;39791;53.184;5.486;2023-12-20T12:41:42;41.88;;;30.67;;
53879;SDS011;39791;53.184;5.486;2023-12-20T12:44:08;36.95;;;26.63;;
53879;SDS011;39791;53.184;5.486;2023-12-20T12:46:34;40.30;;;30.50;;
53879;SDS011;39791;53.184;5.486;2023-12-20T12:48:59;46.92;;;32.88;;
53879;SDS011;39791;53.184;5.486;2023-12-20T12:51:25;40.42;;;30.30;;
53879;SDS011;39791;53.184;5.486;2023-12-20T12:54:11;41.60;;;32.25;;
53879;SDS011;39791;53.184;5.486;2023-12-20T13:02:34;28.63;;;26.05;;
53879;SDS011;39791;53.184;5.486;2023-12-20T13:05:02;33.60;;;30.02;;
53879;SDS011;39791;53.184;5.486;2023-12-20T13:07:29;38.05;;;31.23;;
53879;SDS011;39791;53.184;5.486;2023-12-20T13:09:55;43.15;;;32.78;;
53879;SDS011;39791;53.184;5.486;2023-12-20T13:12:20;38.78;;;33.88;;
53879;SDS011;39791;53.184;5.486;2023-12-20T13:14:46;39.08;;;33.45;;
53879;SDS011;39791;53.184;5.486;2023-12-20T13:17:12;38.17;;;33.30;;
53879;SDS011;39791;53.184;5.486;2023-12-20T13:19:37;38.88;;;31.63;;
53879;SDS011;39791;53.184;5.486;2023-12-20T13:22:03;40.40;;;33.65;;
53879;SDS011;39791;53.184;5.486;2023-12-20T13:24:29;32.38;;;28.98;;
53879;SDS011;39791;53.184;5.486;2023-12-20T13:26:54;42.10;;;33.30;;
53879;SDS011;39791;53.184;5.486;2023-12-20T13:29:20;46.40;;;33.42;;
53879;SDS011;39791;53.184;5.486;2023-12-20T13:31:46;44.22;;;35.40;;
53879;SDS011;39791;53.184;5.486;2023-12-20T13:34:11;36.13;;;30.50;;
53879;SDS011;39791;53.184;5.486;2023-12-20T13:36:37;48.38;;;34.53;;
53879;SDS011;39791;53.184;5.486;2023-12-20T13:39:03;41.40;;;34.58;;
53879;SDS011;39791;53.184;5.486;2023-12-20T13:41:30;37.38;;;32.25;;
53879;SDS011;39791;53.184;5.486;2023-12-20T13:43:55;48.17;;;35.05;;
53879;SDS011;39791;53.184;5.486;2023-12-20T13:46:21;39.17;;;33.65;;
53879;SDS011;39791;53.184;5.486;2023-12-20T13:48:47;63.88;;;35.72;;
53879;SDS011;39791;53.184;5.486;2023-12-20T13:51:14;62.38;;;38.28;;
53879;SDS011;39791;53.184;5.486;2023-12-20T13:53:40;65.38;;;38.85;;
53879;SDS011;39791;53.184;5.486;2023-12-20T13:56:06;65.05;;;38.63;;
53879;SDS011;39791;53.184;5.486;2023-12-20T13:58:31;66.22;;;37.42;;
53879;SDS011;39791;53.184;5.486;2023-12-20T14:00:57;58.20;;;35.13;;
53879;SDS011;39791;53.184;5.486;2023-12-20T14:03:23;60.67;;;35.25;;
53879;SDS011;39791;53.184;5.486;2023-12-20T14:05:48;61.75;;;34.83;;
53879;SDS011;39791;53.184;5.486;2023-12-20T14:08:14;54.20;;;31.75;;
53879;SDS011;39791;53.184;5.486;2023-12-20T14:10:40;46.50;;;30.25;;
53879;SDS011;39791;53.184;5.486;2023-12-20T14:13:05;48.75;;;27.80;;
53879;SDS011;39791;53.184;5.486;2023-12-20T14:15:31;57.05;;;32.40;;
53879;SDS011;39791;53.184;5.486;2023-12-20T14:18:02;38.30;;;26.77;;
53879;SDS011;39791;53.184;5.486;2023-12-20T14:20:31;58.78;;;31.98;;
53879;SDS011;39791;53.184;5.486;2023-12-20T14:22:57;59.10;;;33.65;;
53879;SDS011;39791;53.184;5.486;2023-12-20T14:25:22;65.95;;;34.28;;
53879;SDS011;39791;53.184;5.486;2023-12-20T14:27:48;51.47;;;32.15;;
53879;SDS011;39791;53.184;5.486;2023-12-20T14:30:13;56.05;;;32.30;;